createdAt,value
2018-04-07T00:02:25.961Z,14.87
2018-04-07T00:04:53.520Z,16.10
2018-04-07T00:07:20.973Z,13.73
2018-04-07T00:09:48.494Z,15.90
2018-04-07T00:12:15.987Z,10.77
2018-04-07T00:14:43.436Z,9.37
2018-04-07T00:17:11.006Z,18.77
2018-04-07T00:19:38.495Z,13.90
2018-04-07T00:22:06.063Z,11.73
2018-04-07T00:24:33.516Z,10.03
2018-04-07T00:27:01.014Z,15.50
2018-04-07T00:29:28.470Z,11.17
2018-04-07T00:31:55.930Z,11.33
2018-04-07T00:34:23.403Z,11.97
2018-04-07T00:36:50.855Z,9.60
2018-04-07T00:39:18.328Z,10.63
2018-04-07T00:41:45.821Z,17.63
2018-04-07T00:44:13.272Z,21.17
2018-04-07T00:46:40.717Z,14.87
2018-04-07T00:49:08.178Z,16.30
2018-04-07T00:51:35.622Z,11.67
2018-04-07T00:54:03.100Z,11.70
2018-04-07T00:56:30.569Z,12.80
2018-04-07T00:58:58.025Z,9.27
2018-04-07T01:01:25.502Z,14.57
2018-04-07T01:03:52.980Z,12.73
2018-04-07T01:06:20.471Z,15.50
2018-04-07T01:08:48.028Z,14.63
2018-04-07T01:11:15.487Z,21.87
2018-04-07T01:13:42.970Z,14.60
2018-04-07T01:16:10.434Z,12.57
2018-04-07T01:21:11.656Z,13.23
2018-04-07T01:23:39.121Z,16.87
2018-04-07T01:26:06.610Z,10.13
2018-04-07T01:28:34.122Z,19.73
2018-04-07T01:31:01.590Z,10.73
2018-04-07T01:33:29.102Z,10.63
2018-04-07T01:35:56.561Z,12.27
2018-04-07T01:38:24.163Z,11.07
2018-04-07T01:40:51.660Z,12.30
2018-04-07T01:43:19.108Z,4.77
2018-04-07T01:45:46.574Z,10.73
2018-04-07T01:48:14.054Z,12.90
2018-04-07T01:50:41.518Z,15.40
2018-04-07T01:53:08.989Z,13.47
2018-04-07T01:55:36.466Z,9.60
2018-04-07T01:58:04.001Z,16.40
2018-04-07T02:00:31.468Z,10.53
2018-04-07T02:02:58.944Z,14.33
2018-04-07T02:05:26.395Z,11.27
2018-04-07T02:07:53.952Z,19.20
2018-04-07T02:10:21.405Z,13.17
2018-04-07T02:12:48.862Z,13.27
2018-04-07T02:15:16.413Z,8.77
2018-04-07T02:17:43.864Z,8.43
2018-04-07T02:20:11.324Z,10.30
2018-04-07T02:22:38.834Z,15.37
2018-04-07T02:25:06.295Z,12.53
2018-04-07T02:27:33.764Z,16.00
2018-04-07T02:30:01.247Z,12.17
2018-04-07T02:32:28.702Z,12.90
2018-04-07T02:34:56.187Z,13.13
2018-04-07T02:37:23.674Z,19.57
2018-04-07T02:39:51.201Z,13.43
2018-04-07T02:42:18.672Z,15.40
2018-04-07T02:44:46.137Z,16.97
2018-04-07T02:47:13.619Z,19.60
2018-04-07T02:49:41.099Z,10.07
2018-04-07T02:52:08.574Z,14.97
2018-04-07T02:54:36.035Z,11.10
2018-04-07T02:57:03.514Z,11.23
2018-04-07T02:59:30.972Z,8.23
2018-04-07T03:01:58.425Z,16.53
2018-04-07T03:04:25.929Z,15.07
2018-04-07T03:06:53.426Z,13.70
2018-04-07T03:09:20.888Z,12.90
2018-04-07T03:11:48.444Z,20.03
2018-04-07T03:14:15.918Z,13.37
2018-04-07T03:16:43.468Z,16.03
2018-04-07T03:19:10.922Z,13.17
2018-04-07T03:21:38.412Z,12.13
2018-04-07T03:24:05.942Z,14.90
2018-04-07T03:26:33.431Z,16.10
2018-04-07T03:29:00.895Z,21.00
2018-04-07T03:31:28.408Z,13.27
2018-04-07T03:33:55.865Z,14.67
2018-04-07T03:36:23.427Z,14.53
2018-04-07T03:38:50.912Z,19.40
2018-04-07T03:41:18.411Z,18.60
2018-04-07T03:43:46.674Z,19.73
2018-04-07T03:46:14.159Z,13.93
2018-04-07T03:48:41.630Z,17.80
2018-04-07T03:51:09.082Z,18.50
2018-04-07T03:53:36.582Z,20.27
2018-04-07T03:56:04.093Z,17.87
2018-04-07T03:58:31.666Z,27.23
2018-04-07T04:00:59.210Z,14.47
2018-04-07T04:03:26.771Z,14.10
2018-04-07T04:05:54.226Z,13.93
2018-04-07T04:08:21.711Z,12.37
2018-04-07T04:10:49.170Z,10.23
2018-04-07T04:13:16.622Z,22.23
2018-04-07T04:15:44.099Z,17.90
2018-04-07T04:18:11.723Z,10.40
2018-04-07T04:20:39.282Z,13.07
2018-04-07T04:23:06.735Z,13.57
2018-04-07T04:25:34.194Z,21.37
2018-04-07T04:28:01.698Z,17.00
2018-04-07T04:30:29.210Z,18.43
2018-04-07T04:32:56.762Z,13.10
2018-04-07T04:35:24.257Z,11.63
2018-04-07T04:37:51.717Z,20.17
2018-04-07T04:40:19.209Z,24.77
2018-04-07T04:42:46.687Z,13.40
2018-04-07T04:45:14.143Z,16.53
2018-04-07T04:47:41.629Z,16.47
2018-04-07T04:50:09.169Z,14.80
2018-04-07T04:52:36.618Z,14.77
2018-04-07T04:55:04.179Z,15.67
2018-04-07T04:57:31.599Z,14.90
2018-04-07T04:59:59.110Z,15.50
2018-04-07T05:02:26.603Z,24.23
2018-04-07T05:04:54.067Z,16.20
2018-04-07T05:07:21.534Z,18.17
2018-04-07T05:09:49.034Z,24.67
2018-04-07T05:12:16.496Z,18.23
2018-04-07T05:14:43.947Z,20.53
2018-04-07T05:17:11.438Z,21.10
2018-04-07T05:19:38.914Z,17.30
2018-04-07T05:22:06.385Z,18.23
2018-04-07T05:24:33.874Z,16.17
2018-04-07T05:27:01.384Z,22.80
2018-04-07T05:29:28.860Z,11.67
2018-04-07T05:31:56.343Z,13.13
2018-04-07T05:34:23.846Z,14.73
2018-04-07T05:36:51.318Z,13.47
2018-04-07T05:39:18.809Z,14.57
2018-04-07T05:41:46.266Z,18.90
2018-04-07T05:44:13.783Z,18.10
2018-04-07T05:46:41.266Z,19.10
2018-04-07T05:49:08.730Z,11.00
2018-04-07T05:51:36.187Z,22.13
2018-04-07T05:54:03.762Z,10.93
2018-04-07T05:56:31.231Z,21.53
2018-04-07T05:58:58.690Z,21.93
2018-04-07T06:01:26.297Z,15.27
2018-04-07T06:03:53.820Z,19.97
2018-04-07T06:06:21.380Z,13.37
2018-04-07T06:08:48.926Z,13.57
2018-04-07T06:11:16.514Z,23.43
2018-04-07T06:13:43.967Z,17.80
2018-04-07T06:16:11.418Z,13.13
2018-04-07T06:18:38.916Z,11.93
2018-04-07T06:21:06.540Z,14.50
2018-04-07T06:23:33.998Z,11.63
2018-04-07T06:26:01.491Z,16.57
2018-04-07T06:28:28.950Z,20.60
2018-04-07T06:30:56.479Z,17.27
2018-04-07T06:33:23.955Z,10.47
2018-04-07T06:35:51.438Z,13.60
2018-04-07T06:38:18.894Z,19.60
2018-04-07T06:40:46.350Z,18.23
2018-04-07T06:43:13.829Z,16.57
2018-04-07T06:45:41.295Z,12.50
2018-04-07T06:48:08.812Z,12.33
2018-04-07T06:50:36.278Z,18.53
2018-04-07T06:53:03.766Z,17.43
2018-04-07T06:55:31.224Z,15.50
2018-04-07T06:57:58.722Z,9.40
2018-04-07T07:00:26.240Z,14.63
2018-04-07T07:02:53.694Z,16.00
2018-04-07T07:05:21.172Z,14.57
2018-04-07T07:07:48.634Z,14.10
2018-04-07T07:10:16.094Z,17.67
2018-04-07T07:12:43.608Z,14.60
2018-04-07T07:15:11.054Z,21.60
2018-04-07T07:17:38.516Z,13.10
2018-04-07T07:20:06.024Z,15.13
2018-04-07T07:22:33.483Z,12.83
2018-04-07T07:25:00.933Z,15.53
2018-04-07T07:27:28.420Z,12.87
2018-04-07T07:29:55.875Z,16.70
2018-04-07T07:32:23.330Z,16.77
2018-04-07T07:34:50.808Z,15.03
2018-04-07T07:37:18.263Z,19.87
2018-04-07T07:39:45.713Z,14.70
2018-04-07T07:42:13.312Z,11.73
2018-04-07T07:44:40.746Z,12.23
2018-04-07T07:47:08.210Z,16.00
2018-04-07T07:49:35.696Z,14.40
2018-04-07T07:52:03.178Z,20.87
2018-04-07T07:54:30.630Z,14.37
2018-04-07T07:56:58.110Z,14.97
2018-04-07T07:59:25.579Z,20.23
2018-04-07T08:01:53.041Z,15.80
2018-04-07T08:04:20.534Z,12.93
2018-04-07T08:06:48.054Z,16.93
2018-04-07T08:09:15.570Z,15.47
2018-04-07T08:11:43.052Z,13.30
2018-04-07T08:14:10.566Z,17.47
2018-04-07T08:16:38.052Z,13.23
2018-04-07T08:19:05.515Z,12.80
2018-04-07T08:21:32.998Z,15.47
2018-04-07T08:24:00.521Z,11.07
2018-04-07T08:26:28.032Z,10.00
2018-04-07T08:28:55.511Z,23.00
2018-04-07T08:31:22.977Z,17.83
2018-04-07T08:33:50.479Z,13.03
2018-04-07T08:36:17.937Z,13.40
2018-04-07T08:38:45.399Z,20.53
2018-04-07T08:41:13.198Z,16.43
2018-04-07T08:43:40.716Z,14.00
2018-04-07T08:46:08.281Z,15.03
2018-04-07T08:48:35.761Z,12.40
2018-04-07T08:51:03.244Z,21.93
2018-04-07T08:53:30.740Z,14.97
2018-04-07T08:55:58.254Z,21.67
2018-04-07T08:58:25.739Z,15.63
2018-04-07T09:00:53.274Z,19.23
2018-04-07T09:03:20.752Z,20.07
2018-04-07T09:05:48.238Z,15.57
2018-04-07T09:08:15.735Z,17.63
2018-04-07T09:10:43.203Z,13.90
2018-04-07T09:13:10.675Z,10.57
2018-04-07T09:15:38.166Z,15.43
2018-04-07T09:18:05.729Z,19.77
2018-04-07T09:20:33.207Z,14.57
2018-04-07T09:23:00.681Z,12.20
2018-04-07T09:25:28.134Z,13.00
2018-04-07T09:27:55.656Z,6.47
2018-04-07T09:30:23.121Z,13.00
2018-04-07T09:32:50.725Z,13.63
2018-04-07T09:35:18.191Z,11.40
2018-04-07T09:37:45.669Z,18.23
2018-04-07T09:40:13.171Z,13.87
2018-04-07T09:42:40.674Z,15.37
2018-04-07T09:45:08.126Z,10.33
2018-04-07T09:47:35.683Z,16.10
2018-04-07T09:50:03.137Z,16.53
2018-04-07T09:52:30.698Z,16.83
2018-04-07T09:54:58.252Z,13.67
2018-04-07T09:57:25.700Z,8.07
2018-04-07T09:59:53.154Z,16.80
2018-04-07T10:02:20.634Z,13.47
2018-04-07T10:04:48.138Z,15.77
2018-04-07T10:07:15.593Z,17.70
2018-04-07T10:09:43.091Z,11.07
2018-04-07T10:12:10.561Z,13.23
2018-04-07T10:14:38.017Z,9.27
2018-04-07T10:17:05.513Z,12.17
2018-04-07T10:19:32.986Z,11.00
2018-04-07T10:22:00.488Z,13.60
2018-04-07T10:24:27.979Z,9.53
2018-04-07T10:26:55.507Z,8.10
2018-04-07T10:29:22.965Z,10.67
2018-04-07T10:31:50.425Z,11.00
2018-04-07T10:34:17.916Z,11.13
2018-04-07T10:36:45.384Z,16.63
2018-04-07T10:39:12.854Z,15.33
2018-04-07T10:41:40.478Z,9.23
2018-04-07T10:44:07.955Z,13.00
2018-04-07T10:46:35.422Z,11.40
2018-04-07T10:49:02.927Z,11.73
2018-04-07T10:51:30.393Z,13.30
2018-04-07T10:53:57.929Z,14.30
2018-04-07T10:56:25.419Z,20.33
2018-04-07T10:58:52.875Z,11.93
2018-04-07T11:01:20.371Z,13.50
2018-04-07T11:03:47.842Z,12.03
2018-04-07T11:06:15.313Z,14.53
2018-04-07T11:08:42.794Z,9.87
2018-04-07T11:11:10.251Z,11.07
2018-04-07T11:13:37.746Z,12.07
2018-04-07T11:16:05.261Z,12.40
2018-04-07T11:18:33.093Z,9.80
2018-04-07T11:21:00.583Z,12.10
2018-04-07T11:23:28.078Z,12.60
2018-04-07T11:25:55.612Z,12.47
2018-04-07T11:28:23.067Z,10.23
2018-04-07T11:30:50.569Z,14.60
2018-04-07T11:33:18.027Z,16.30
2018-04-07T11:35:45.536Z,18.20
2018-04-07T11:38:13.057Z,7.93
2018-04-07T11:40:40.522Z,10.07
2018-04-07T11:43:07.989Z,17.93
2018-04-07T11:45:35.511Z,10.00
2018-04-07T11:48:03.017Z,16.07
2018-04-07T11:50:30.478Z,12.53
2018-04-07T11:52:58.084Z,10.97
2018-04-07T11:55:25.607Z,10.37
2018-04-07T11:57:53.204Z,12.93
2018-04-07T12:00:20.674Z,11.40
2018-04-07T12:02:48.179Z,7.90
2018-04-07T12:05:15.648Z,8.50
2018-04-07T12:07:43.106Z,22.90
2018-04-07T12:10:10.593Z,7.40
2018-04-07T12:12:38.150Z,12.97
2018-04-07T12:15:05.617Z,12.43
2018-04-07T12:17:33.120Z,9.20
2018-04-07T12:20:00.597Z,11.07
2018-04-07T12:22:29.039Z,8.23
2018-04-07T12:24:56.666Z,14.80
2018-04-07T12:27:24.121Z,5.77
2018-04-07T12:29:51.585Z,12.70
2018-04-07T12:32:19.082Z,7.00
2018-04-07T12:34:46.541Z,8.90
2018-04-07T12:37:13.994Z,11.23
2018-04-07T12:39:41.466Z,9.13
2018-04-07T12:42:08.923Z,10.13
2018-04-07T12:44:36.401Z,10.67
2018-04-07T12:47:03.947Z,8.77
2018-04-07T12:49:31.408Z,9.27
2018-04-07T12:51:58.864Z,12.20
2018-04-07T12:54:26.385Z,10.20
2018-04-07T12:56:53.912Z,8.40
2018-04-07T12:59:21.367Z,7.63
2018-04-07T13:01:48.850Z,10.73
2018-04-07T13:04:16.310Z,10.03
2018-04-07T13:06:43.772Z,12.30
2018-04-07T13:09:11.298Z,8.90
2018-04-07T13:11:38.821Z,9.30
2018-04-07T13:14:06.301Z,8.03
2018-04-07T13:16:33.790Z,9.87
2018-04-07T13:19:01.244Z,9.60
2018-04-07T13:21:28.712Z,8.93
2018-04-07T13:23:56.249Z,11.40
2018-04-07T13:26:23.706Z,8.87
2018-04-07T13:28:51.180Z,7.23
2018-04-07T13:31:18.690Z,7.50
2018-04-07T13:33:46.164Z,7.83
2018-04-07T13:36:13.624Z,13.93
2018-04-07T13:38:41.115Z,7.23
2018-04-07T13:41:08.582Z,7.40
2018-04-07T13:43:36.034Z,8.60
2018-04-07T13:46:03.518Z,7.13
2018-04-07T13:48:31.027Z,16.57
2018-04-07T13:50:58.522Z,10.27
2018-04-07T13:53:25.978Z,7.93
2018-04-07T13:55:53.442Z,10.27
2018-04-07T13:58:20.958Z,8.80
2018-04-07T14:00:48.418Z,7.00
2018-04-07T14:03:15.906Z,5.17
2018-04-07T14:05:43.457Z,9.13
2018-04-07T14:08:10.918Z,18.03
2018-04-07T14:10:38.410Z,10.20
2018-04-07T14:13:05.878Z,9.40
2018-04-07T14:15:33.394Z,5.80
2018-04-07T14:18:00.899Z,5.63
2018-04-07T14:20:28.382Z,10.43
2018-04-07T14:22:55.864Z,8.30
2018-04-07T14:25:23.747Z,6.93
2018-04-07T14:27:51.422Z,10.90
2018-04-07T14:30:19.502Z,21.23
2018-04-07T14:32:47.268Z,7.83
2018-04-07T14:35:14.803Z,7.37
2018-04-07T14:37:42.291Z,10.33
2018-04-07T14:40:09.767Z,7.50
2018-04-07T14:42:37.290Z,7.63
2018-04-07T14:45:04.749Z,9.13
2018-04-07T14:47:32.345Z,9.80
2018-04-07T14:49:59.833Z,9.30
2018-04-07T14:52:27.287Z,12.03
2018-04-07T14:54:55.044Z,21.80
2018-04-07T14:57:22.664Z,6.30
2018-04-07T14:59:50.145Z,10.30
2018-04-07T15:02:17.658Z,10.90
2018-04-07T15:04:45.215Z,12.63
2018-04-07T15:07:12.667Z,9.10
2018-04-07T15:09:40.165Z,4.93
2018-04-07T15:12:07.618Z,10.30
2018-04-07T15:14:35.073Z,9.50
2018-04-07T15:17:02.562Z,5.30
2018-04-07T15:19:30.115Z,8.57
2018-04-07T15:21:57.658Z,6.70
2018-04-07T15:24:25.142Z,17.27
2018-04-07T15:26:52.694Z,6.30
2018-04-07T15:29:20.196Z,10.53
2018-04-07T15:31:47.750Z,6.23
2018-04-07T15:34:15.240Z,9.57
2018-04-07T15:36:42.729Z,10.70
2018-04-07T15:39:10.180Z,10.03
2018-04-07T15:41:37.723Z,7.80
2018-04-07T15:44:06.091Z,8.30
2018-04-07T15:46:33.597Z,7.80
2018-04-07T15:49:01.082Z,7.73
2018-04-07T15:51:28.584Z,8.33
2018-04-07T15:53:56.032Z,7.07
2018-04-07T15:56:23.503Z,5.60
2018-04-07T15:58:51.005Z,7.73
2018-04-07T16:01:18.456Z,6.47
2018-04-07T16:03:45.950Z,5.20
2018-04-07T16:06:13.427Z,8.33
2018-04-07T16:08:40.990Z,9.93
2018-04-07T16:11:08.502Z,14.20
2018-04-07T16:13:36.209Z,14.50
2018-04-07T16:16:03.661Z,8.50
2018-04-07T16:18:31.225Z,6.53
2018-04-07T16:20:58.687Z,10.33
2018-04-07T16:23:26.242Z,6.33
2018-04-07T16:25:53.737Z,12.33
2018-04-07T16:28:21.216Z,10.30
2018-04-07T16:30:48.683Z,7.60
2018-04-07T16:33:16.173Z,12.23
2018-04-07T16:35:43.666Z,9.33
2018-04-07T16:38:11.139Z,8.40
2018-04-07T16:40:38.594Z,7.40
2018-04-07T16:43:06.173Z,6.20
2018-04-07T16:45:33.665Z,9.13
2018-04-07T16:48:01.133Z,7.07
2018-04-07T16:50:28.603Z,13.30
2018-04-07T16:52:56.105Z,9.40
2018-04-07T16:55:23.664Z,14.13
2018-04-07T16:57:51.114Z,9.90
2018-04-07T17:00:18.590Z,11.33
2018-04-07T17:02:46.484Z,10.30
2018-04-07T17:05:14.992Z,6.90
2018-04-07T17:07:42.482Z,10.50
2018-04-07T17:10:09.979Z,10.40
2018-04-07T17:12:37.456Z,9.40
2018-04-07T17:15:04.931Z,10.73
2018-04-07T17:17:32.469Z,17.83
2018-04-07T17:20:00.022Z,8.27
2018-04-07T17:22:27.472Z,8.70
2018-04-07T17:24:54.930Z,10.33
2018-04-07T17:27:22.447Z,9.63
2018-04-07T17:29:49.907Z,13.83
2018-04-07T17:32:17.374Z,10.70
2018-04-07T17:34:44.859Z,12.00
2018-04-07T17:37:12.418Z,23.10
2018-04-07T17:39:39.878Z,10.63
2018-04-07T17:42:07.422Z,17.77
2018-04-07T17:44:34.965Z,11.17
2018-04-07T17:47:02.498Z,11.63
2018-04-07T17:49:29.982Z,12.93
2018-04-07T17:51:57.574Z,10.17
2018-04-07T17:54:25.034Z,13.83
2018-04-07T17:56:52.526Z,11.37
2018-04-07T17:59:20.004Z,13.60
2018-04-07T18:01:47.470Z,17.40
2018-04-07T18:04:14.945Z,16.10
2018-04-07T18:06:42.440Z,20.47
2018-04-07T18:09:09.899Z,17.17
2018-04-07T18:11:37.428Z,13.43
2018-04-07T18:14:04.866Z,14.90
2018-04-07T18:16:32.318Z,14.27
2018-04-07T18:18:59.872Z,14.93
2018-04-07T18:21:27.325Z,22.00
2018-04-07T18:23:54.877Z,22.03
2018-04-07T18:26:22.358Z,14.40
2018-04-07T18:28:49.906Z,15.17
2018-04-07T18:31:17.368Z,19.13
2018-04-07T18:33:44.864Z,22.73
2018-04-07T18:36:12.416Z,20.10
2018-04-07T18:38:39.891Z,23.50
2018-04-07T18:41:07.578Z,25.53
2018-04-07T18:43:35.031Z,15.90
2018-04-07T18:46:02.554Z,14.83
2018-04-07T18:48:30.120Z,19.07
2018-04-07T18:50:57.595Z,20.90
2018-04-07T18:53:25.087Z,26.57
2018-04-07T18:55:52.579Z,16.90
2018-04-07T18:58:20.053Z,16.23
2018-04-07T19:00:47.525Z,16.20
2018-04-07T19:03:15.300Z,24.90
2018-04-07T19:05:42.885Z,19.57
2018-04-07T19:08:10.338Z,21.63
2018-04-07T19:10:37.836Z,18.43
2018-04-07T19:13:05.330Z,20.07
2018-04-07T19:15:32.792Z,19.00
2018-04-07T19:18:00.245Z,21.90
2018-04-07T19:20:27.739Z,21.60
2018-04-07T19:22:55.198Z,22.37
2018-04-07T19:25:22.680Z,25.10
2018-04-07T19:27:50.198Z,18.80
2018-04-07T19:30:17.674Z,38.60
2018-04-07T19:32:45.257Z,23.23
2018-04-07T19:35:12.738Z,27.03
2018-04-07T19:37:40.274Z,48.87
2018-04-07T19:40:07.833Z,57.30
2018-04-07T19:42:35.697Z,36.60
2018-04-07T19:45:03.170Z,34.00
2018-04-07T19:47:30.653Z,52.70
2018-04-07T19:49:58.150Z,28.17
2018-04-07T19:52:25.611Z,37.13
2018-04-07T19:54:53.078Z,24.87
2018-04-07T19:57:20.575Z,27.83
2018-04-07T19:59:48.047Z,32.23
2018-04-07T20:02:15.614Z,36.83
2018-04-07T20:04:43.082Z,28.83
2018-04-07T20:07:10.639Z,29.80
2018-04-07T20:09:38.227Z,20.67
2018-04-07T20:12:05.706Z,22.13
2018-04-07T20:14:33.218Z,20.07
2018-04-07T20:17:00.709Z,22.57
2018-04-07T20:19:28.330Z,38.70
2018-04-07T20:21:55.937Z,27.13
2018-04-07T20:24:23.497Z,22.67
2018-04-07T20:26:51.047Z,33.33
2018-04-07T20:29:18.518Z,19.27
2018-04-07T20:31:45.987Z,24.20
2018-04-07T20:34:13.486Z,25.00
2018-04-07T20:36:40.957Z,29.03
2018-04-07T20:39:08.446Z,31.63
2018-04-07T20:41:35.936Z,26.53
2018-04-07T20:44:03.430Z,30.47
2018-04-07T20:46:30.898Z,23.37
2018-04-07T20:48:58.481Z,33.00
2018-04-07T20:51:26.002Z,52.33
2018-04-07T20:53:53.567Z,29.23
2018-04-07T20:56:21.066Z,21.03
2018-04-07T20:58:48.582Z,28.20
2018-04-07T21:01:16.137Z,22.40
2018-04-07T21:03:43.608Z,35.30
2018-04-07T21:06:11.091Z,28.43
2018-04-07T21:08:38.566Z,23.50
2018-04-07T21:11:06.039Z,24.77
2018-04-07T21:13:33.518Z,30.03
2018-04-07T21:16:01.024Z,27.70
2018-04-07T21:18:28.491Z,25.23
2018-04-07T21:20:55.975Z,31.90
2018-04-07T21:23:23.440Z,28.83
2018-04-07T21:25:51.012Z,27.70
2018-04-07T21:28:18.591Z,27.83
2018-04-07T21:30:46.133Z,23.80
2018-04-07T21:33:13.617Z,26.20
2018-04-07T21:35:41.211Z,23.20
2018-04-07T21:38:08.706Z,25.90
2018-04-07T21:40:36.266Z,24.33
2018-04-07T21:43:03.726Z,22.00
2018-04-07T21:45:31.206Z,26.37
2018-04-07T21:47:58.694Z,32.30
2018-04-07T21:50:26.228Z,22.37
2018-04-07T21:52:53.801Z,25.23
2018-04-07T21:55:21.306Z,25.63
2018-04-07T21:57:48.813Z,22.17
2018-04-07T22:00:16.277Z,22.10
2018-04-07T22:02:43.787Z,23.20
2018-04-07T22:05:11.286Z,23.13
2018-04-07T22:07:38.810Z,29.87
2018-04-07T22:10:06.295Z,23.90
2018-04-07T22:12:33.768Z,22.40
2018-04-07T22:15:01.239Z,21.77
2018-04-07T22:17:28.738Z,22.53
2018-04-07T22:19:56.289Z,20.30
2018-04-07T22:22:23.794Z,19.87
2018-04-07T22:24:51.316Z,20.80
2018-04-07T22:27:18.807Z,19.47
2018-04-07T22:29:46.301Z,19.57
2018-04-07T22:32:13.887Z,17.93
2018-04-07T22:34:41.358Z,18.83
2018-04-07T22:37:08.838Z,23.37
2018-04-07T22:39:36.297Z,16.03
2018-04-07T22:42:03.778Z,14.97
2018-04-07T22:44:31.278Z,16.07
2018-04-07T22:46:58.738Z,26.33
2018-04-07T22:49:26.257Z,17.03
2018-04-07T22:51:53.712Z,22.07
2018-04-07T22:54:21.186Z,24.03
2018-04-07T22:56:48.702Z,15.10
2018-04-07T22:59:16.262Z,19.77
2018-04-07T23:01:43.723Z,16.20
2018-04-07T23:04:11.238Z,19.17
2018-04-07T23:06:38.792Z,22.83
2018-04-07T23:09:06.254Z,19.57
2018-04-07T23:11:33.814Z,19.07
2018-04-07T23:14:01.284Z,18.50
2018-04-07T23:16:28.770Z,24.57
2018-04-07T23:18:56.244Z,16.10
2018-04-07T23:21:23.770Z,21.40
2018-04-07T23:23:51.234Z,17.30
2018-04-07T23:26:18.723Z,15.97
2018-04-07T23:28:46.260Z,17.10
2018-04-07T23:31:13.759Z,19.20
2018-04-07T23:33:41.219Z,16.73
2018-04-07T23:36:08.718Z,18.87
2018-04-07T23:38:36.206Z,14.70
2018-04-07T23:41:03.751Z,17.00
2018-04-07T23:43:31.220Z,14.87
2018-04-07T23:45:58.710Z,14.20
2018-04-07T23:48:26.171Z,14.83
2018-04-07T23:50:53.682Z,12.27
2018-04-07T23:53:21.209Z,14.33
2018-04-07T23:55:48.669Z,17.93
2018-04-07T23:58:16.133Z,15.87
